Time;durP1;ratioP1;P1;durP2;ratioP2;P2;SDS_P1;SDS_P2;PMS_P1;PMS_P2;Temp;Humidity;BMP_temperature;BMP_pressure;BME280_temperature;BME280_humidity;BME280_pressure;Samples;Min_cycle;Max_cycle;Signal;HPM_P1;HPM_P2
2022/01/03 00:00:23;;;;;;;32.50;4.50;;;;;;;8.69;100.00;100955.94;5084428;27;20037;-73
2022/01/03 00:02:48;;;;;;;29.08;3.88;;;;;;;8.70;100.00;100948.47;5097514;27;20035;-73
2022/01/03 00:05:14;;;;;;;28.58;4.40;;;;;;;8.69;100.00;100942.09;5096345;27;20032;-73
2022/01/03 00:07:42;;;;;;;34.33;5.03;;;;;;;8.69;100.00;100950.41;5076278;27;20087;-73
2022/01/03 00:10:08;;;;;;;28.65;4.57;;;;;;;8.69;100.00;100947.63;5083815;28;20031;-73
2022/01/03 00:12:33;;;;;;;36.28;4.88;;;;;;;8.69;100.00;100953.19;5127147;27;20054;-73
2022/01/03 00:14:59;;;;;;;36.53;4.57;;;;;;;8.70;100.00;100954.81;5130095;27;20035;-74
2022/01/03 00:17:25;;;;;;;34.88;5.07;;;;;;;8.69;100.00;100967.03;5102522;27;20482;-73
2022/01/03 00:19:50;;;;;;;37.92;5.03;;;;;;;8.69;100.00;100953.19;5083792;27;20031;-73
2022/01/03 00:22:18;;;;;;;36.35;4.57;;;;;;;8.69;100.00;100958.72;5115021;27;20035;-73
2022/01/03 00:24:45;;;;;;;26.92;4.65;;;;;;;8.71;100.00;100972.28;5095517;27;20065;-73
2022/01/03 00:27:13;;;;;;;36.00;4.97;;;;;;;8.71;100.00;100966.72;5098418;27;20060;-73
2022/01/03 00:29:44;;;;;;;30.52;4.68;;;;;;;8.71;100.00;100975.03;5100684;27;20043;-73
2022/01/03 00:32:10;;;;;;;29.02;4.32;;;;;;;8.71;100.00;100972.28;5087115;28;20035;-73
2022/01/03 00:34:36;;;;;;;37.30;5.10;;;;;;;8.71;100.00;100970.31;5101921;28;20055;-73
2022/01/03 00:37:01;;;;;;;38.22;5.00;;;;;;;8.71;100.00;100964.78;5102640;28;20032;-73
2022/01/03 00:39:27;;;;;;;32.30;4.40;;;;;;;8.72;100.00;100963.72;5068683;28;20047;-73
2022/01/03 00:41:52;;;;;;;37.47;5.15;;;;;;;8.71;100.00;100962.03;5084885;28;20031;-73
2022/01/03 00:44:18;;;;;;;34.58;4.97;;;;;;;8.71;100.00;100962.03;5082997;28;20387;-73
2022/01/03 00:46:45;;;;;;;36.85;5.00;;;;;;;8.73;100.00;100964.53;5104242;28;20081;-73
2022/01/03 00:49:10;;;;;;;30.98;4.95;;;;;;;8.72;100.00;100957.34;5098915;28;20043;-73
2022/01/03 00:51:36;;;;;;;35.13;5.13;;;;;;;8.72;100.00;100946.25;5084040;28;20028;-73
2022/01/03 00:54:02;;;;;;;32.88;4.65;;;;;;;8.75;100.00;100953.16;5075334;28;20034;-74
2022/01/03 00:56:35;;;;;;;35.05;4.10;;;;;;;8.73;100.00;100957.06;5092785;28;20040;-73
2022/01/03 00:59:15;;;;;;;35.60;4.25;;;;;;;8.75;100.00;100950.41;5091275;28;20082;-74
2022/01/03 01:01:48;;;;;;;27.45;3.55;;;;;;;8.75;100.00;100953.16;5080565;28;20039;-74
2022/01/03 01:04:14;;;;;;;32.10;4.80;;;;;;;8.75;100.00;100942.94;5099166;28;20038;-73
2022/01/03 01:06:39;;;;;;;31.50;4.80;;;;;;;8.75;100.00;100939.31;5113015;28;20107;-73
2022/01/03 01:09:06;;;;;;;36.88;5.47;;;;;;;8.76;100.00;100941.00;5116068;28;20036;-73
2022/01/03 01:11:32;;;;;;;33.38;4.00;;;;;;;8.77;100.00;100943.50;5131121;28;20606;-73
2022/01/03 01:13:58;;;;;;;30.83;4.25;;;;;;;8.76;100.00;100928.00;5097674;28;20040;-75
2022/01/03 01:16:24;;;;;;;33.03;5.07;;;;;;;8.78;100.00;100934.09;5093460;28;20047;-73
2022/01/03 01:18:50;;;;;;;34.47;4.53;;;;;;;8.78;100.00;100925.78;5101174;28;20031;-73
2022/01/03 01:21:15;;;;;;;31.02;4.53;;;;;;;8.79;100.00;100923.84;5085037;28;20089;-73
2022/01/03 01:23:42;;;;;;;39.05;4.30;;;;;;;8.79;100.00;100923.84;5130186;28;20039;-74
2022/01/03 01:28:51;;;;;;;33.13;4.85;;;;;;;8.78;100.00;100939.63;5105522;28;20027;-75
2022/01/03 01:31:20;;;;;;;39.42;4.53;;;;;;;8.78;100.00;100936.03;5103097;27;20047;-73
2022/01/03 01:33:45;;;;;;;36.40;4.88;;;;;;;8.79;100.00;100934.91;5096050;28;20166;-73
2022/01/03 01:36:11;;;;;;;36.95;4.18;;;;;;;8.79;100.00;100932.97;5076066;27;20039;-74
2022/01/03 01:38:36;;;;;;;32.08;4.63;;;;;;;8.80;100.00;100936.56;5102409;27;20072;-73
2022/01/03 01:41:04;;;;;;;29.85;4.35;;;;;;;8.78;100.00;100934.09;5118199;27;20031;-73
2022/01/03 01:43:44;;;;;;;31.65;4.70;;;;;;;8.81;100.00;100932.72;5107396;27;20374;-73
2022/01/03 01:46:13;;;;;;;36.83;5.60;;;;;;;8.80;100.00;100934.63;5140995;27;20035;-73
2022/01/03 01:48:40;;;;;;;28.50;3.70;;;;;;;8.80;100.00;100933.81;5085127;27;20031;-73
2022/01/03 01:51:07;;;;;;;42.15;5.90;;;;;;;8.79;100.00;100934.91;5128697;27;20031;-74
2022/01/03 01:53:32;;;;;;;29.45;4.95;;;;;;;8.79;100.00;100934.91;5147303;27;20503;-74
2022/01/03 01:55:59;;;;;;;39.70;5.13;;;;;;;8.81;100.00;100936.31;5108564;27;20031;-74
2022/01/03 01:58:37;;;;;;;40.33;5.45;;;;;;;8.82;100.00;100945.44;5136057;27;20031;-73
2022/01/03 02:01:04;;;;;;;32.35;4.43;;;;;;;8.82;100.00;100934.38;5097880;28;20032;-73
2022/01/03 02:03:47;;;;;;;31.52;4.70;;;;;;;8.82;100.00;100945.44;5119217;27;20088;-73
2022/01/03 02:06:22;;;;;;;35.50;5.50;;;;;;;8.81;100.00;100939.09;5107548;27;20440;-74
2022/01/03 02:09:08;;;;;;;37.03;4.40;;;;;;;8.82;100.00;100939.91;5113257;27;20035;-73
2022/01/03 02:11:53;;;;;;;31.30;4.50;;;;;;;8.82;100.00;100943.50;5134517;27;20031;-73
2022/01/03 02:14:22;;;;;;;28.50;3.97;;;;;;;8.81;100.00;100928.00;5104737;27;20035;-74
2022/01/03 02:16:48;;;;;;;29.25;4.13;;;;;;;8.81;100.00;100933.53;5118313;27;20070;-73
2022/01/03 02:19:14;;;;;;;24.52;4.57;;;;;;;8.82;100.00;100937.97;5102580;27;20035;-73
2022/01/03 02:21:39;;;;;;;34.58;4.45;;;;;;;8.81;100.00;100916.09;5089159;27;20368;-73
2022/01/03 02:24:05;;;;;;;38.33;4.15;;;;;;;8.80;100.00;100909.72;5104689;27;20106;-73
2022/01/03 02:26:31;;;;;;;34.63;4.47;;;;;;;8.81;100.00;100894.78;5134275;27;20053;-73
2022/01/03 02:28:56;;;;;;;31.58;4.32;;;;;;;8.81;100.00;100896.72;5118233;27;20031;-74
2022/01/03 02:31:22;;;;;;;34.58;5.50;;;;;;;8.81;100.00;100910.56;5114978;27;20054;-75
2022/01/03 02:33:48;;;;;;;28.20;4.75;;;;;;;8.80;100.00;100903.34;5108267;27;20027;-74
2022/01/03 02:36:14;;;;;;;40.33;5.15;;;;;;;8.80;100.00;100911.66;5116891;27;20023;-75
2022/01/03 02:38:40;;;;;;;35.97;5.15;;;;;;;8.79;100.00;100901.69;5098489;27;20028;-75
2022/01/03 02:41:05;;;;;;;32.88;4.25;;;;;;;8.78;100.00;100905.56;5119205;27;20463;-75
2022/01/03 02:43:31;;;;;;;32.13;4.00;;;;;;;8.80;100.00;100911.66;5096375;27;20092;-74
2022/01/03 02:45:56;;;;;;;30.60;4.78;;;;;;;8.79;100.00;100912.75;5136019;27;20035;-74
2022/01/03 02:48:22;;;;;;;28.92;3.70;;;;;;;8.78;100.00;100917.47;5098450;28;20032;-73
2022/01/03 02:50:48;;;;;;;34.00;5.00;;;;;;;8.79;100.00;100910.00;5115085;28;20040;-73
2022/01/03 02:53:13;;;;;;;33.47;4.13;;;;;;;8.80;100.00;100904.16;5120983;27;20039;-73
2022/01/03 02:55:38;;;;;;;31.75;4.43;;;;;;;8.79;100.00;100890.59;5120260;27;20035;-73
2022/01/03 02:58:07;;;;;;;25.40;3.88;;;;;;;8.78;100.00;100878.72;5117031;27;20046;-73
2022/01/03 03:00:45;;;;;;;32.97;4.25;;;;;;;8.79;100.00;100885.91;5116817;27;20046;-73
2022/01/03 03:03:13;;;;;;;25.80;4.03;;;;;;;8.79;100.00;100882.31;5119933;27;20379;-73
2022/01/03 03:05:38;;;;;;;39.63;5.07;;;;;;;8.79;100.00;100874.81;5091909;28;20063;-73
2022/01/03 03:08:04;;;;;;;29.33;4.15;;;;;;;8.79;100.00;100877.59;5083578;27;20099;-73
2022/01/03 03:10:29;;;;;;;28.92;3.92;;;;;;;8.78;100.00;100875.09;5084865;27;20487;-73
2022/01/03 03:12:55;;;;;;;39.20;4.93;;;;;;;8.79;100.00;100876.75;5071803;27;20027;-73
2022/01/03 03:15:20;;;;;;;31.85;4.13;;;;;;;8.78;100.00;100875.09;5137398;27;20027;-73
2022/01/03 03:17:47;;;;;;;35.08;4.75;;;;;;;8.78;100.00;100866.81;5094080;28;20058;-73
2022/01/03 03:20:20;;;;;;;35.53;4.13;;;;;;;8.79;100.00;100871.22;5127188;27;20027;-73
2022/01/03 03:22:49;;;;;;;31.40;5.07;;;;;;;8.77;100.00;100876.19;5118958;27;20023;-73
2022/01/03 03:25:20;;;;;;;39.33;4.50;;;;;;;8.78;100.00;100870.41;5077649;27;20563;-73
2022/01/03 03:27:47;;;;;;;31.25;4.93;;;;;;;8.77;100.00;100868.72;5097930;27;20023;-73
2022/01/03 03:30:21;;;;;;;30.88;4.35;;;;;;;8.78;100.00;100861.25;5113960;28;20480;-73
2022/01/03 03:32:47;;;;;;;38.08;4.78;;;;;;;8.78;100.00;100864.03;5106207;28;20036;-73
2022/01/03 03:35:13;;;;;;;45.97;4.80;;;;;;;8.79;100.00;100862.91;5087548;28;20039;-73
2022/01/03 03:37:38;;;;;;;31.90;4.07;;;;;;;8.76;100.00;100867.06;5112819;28;20028;-73
2022/01/03 03:40:04;;;;;;;41.05;4.30;;;;;;;8.78;100.00;100878.72;5073280;28;20036;-73
2022/01/03 03:42:30;;;;;;;30.08;3.75;;;;;;;8.76;100.00;100875.38;5094031;28;20061;-73
2022/01/03 03:44:55;;;;;;;32.10;4.25;;;;;;;8.78;100.00;100872.34;5090669;28;20035;-73
2022/01/03 03:47:21;;;;;;;44.63;5.72;;;;;;;8.75;100.00;100857.09;5083385;28;20054;-73
2022/01/03 03:49:46;;;;;;;33.75;4.55;;;;;;;8.77;100.00;100863.19;5072240;28;20063;-73
2022/01/03 03:52:12;;;;;;;31.70;3.97;;;;;;;8.78;100.00;100861.25;5072704;28;20090;-73
2022/01/03 03:54:38;;;;;;;30.83;5.03;;;;;;;8.79;100.00;100838.00;5105391;28;20114;-73
2022/01/03 03:57:04;;;;;;;30.75;4.03;;;;;;;8.79;100.00;100843.53;5085948;28;20032;-73
2022/01/03 03:59:30;;;;;;;39.55;4.35;;;;;;;8.78;100.00;100844.66;5074494;28;20020;-73
2022/01/03 04:01:55;;;;;;;29.98;4.32;;;;;;;8.78;100.00;100845.47;5076259;28;20451;-73
2022/01/03 04:04:21;;;;;;;28.52;4.78;;;;;;;8.79;100.00;100829.69;5078452;28;20088;-73
2022/01/03 04:06:47;;;;;;;26.02;4.10;;;;;;;8.80;100.00;100834.09;5088837;28;20431;-73
2022/01/03 04:09:12;;;;;;;33.53;4.78;;;;;;;8.78;100.00;100828.84;5113369;28;20067;-73
2022/01/03 04:11:38;;;;;;;30.92;3.97;;;;;;;8.79;100.00;100840.75;5111731;28;20027;-73
2022/01/03 04:14:03;;;;;;;35.72;4.68;;;;;;;8.78;100.00;100830.81;5112428;28;20059;-74
2022/01/03 04:16:28;;;;;;;36.55;4.15;;;;;;;8.75;100.00;100829.41;5111025;28;20118;-74
2022/01/03 04:18:54;;;;;;;28.35;3.67;;;;;;;8.75;100.00;100825.78;5110300;28;20383;-74
2022/01/03 04:21:20;;;;;;;36.67;4.38;;;;;;;8.76;100.00;100827.47;5111842;28;20027;-73
2022/01/03 04:23:45;;;;;;;27.45;3.83;;;;;;;8.78;100.00;100839.09;5093256;28;20109;-73
2022/01/03 04:26:11;;;;;;;26.65;3.50;;;;;;;8.77;100.00;100831.88;5115955;27;20540;-73
2022/01/03 04:28:38;;;;;;;28.73;4.50;;;;;;;8.77;100.00;100823.56;5112972;28;20031;-74
2022/01/03 04:31:03;;;;;;;31.77;4.15;;;;;;;8.79;100.00;100807.53;5111608;28;20165;-73
2022/01/03 04:33:29;;;;;;;29.00;4.40;;;;;;;8.78;100.00;100797.56;5093549;28;20583;-73
2022/01/03 04:35:54;;;;;;;27.83;4.30;;;;;;;8.78;100.00;100809.47;5081196;28;20027;-73
2022/01/03 04:38:20;;;;;;;30.55;3.67;;;;;;;8.78;100.00;100801.16;5075101;28;20098;-73
2022/01/03 04:40:45;;;;;;;39.22;4.55;;;;;;;8.80;100.00;100806.41;5076016;28;20036;-73
2022/01/03 04:43:10;;;;;;;34.00;4.97;;;;;;;8.78;100.00;100800.34;5091130;28;20039;-73
2022/01/03 04:45:36;;;;;;;35.33;4.53;;;;;;;8.79;100.00;100791.75;5070466;28;20476;-73
2022/01/03 04:48:01;;;;;;;36.35;4.35;;;;;;;8.78;100.00;100790.09;5070208;28;20078;-73
2022/01/03 04:50:27;;;;;;;26.08;3.60;;;;;;;8.79;100.00;100796.44;5085632;28;20036;-73
2022/01/03 04:52:52;;;;;;;31.75;4.28;;;;;;;8.80;100.00;100804.47;5111288;28;20051;-73
2022/01/03 04:55:18;;;;;;;31.42;3.85;;;;;;;8.77;100.00;100787.56;5095225;28;20523;-73
2022/01/03 04:57:43;;;;;;;32.95;4.57;;;;;;;8.78;100.00;100783.72;5093186;28;20028;-73
2022/01/03 05:00:09;;;;;;;34.70;4.28;;;;;;;8.79;100.00;100785.38;5075453;28;20372;-74
2022/01/03 05:02:37;;;;;;;34.55;4.25;;;;;;;8.78;100.00;100772.66;5093544;28;20083;-75
2022/01/03 05:05:03;;;;;;;34.08;3.83;;;;;;;8.79;100.00;100780.66;5104890;28;20032;-73
2022/01/03 05:07:28;;;;;;;41.58;6.85;;;;;;;8.79;100.00;100780.66;5102493;28;20032;-73
2022/01/03 05:09:54;;;;;;;28.58;4.50;;;;;;;8.80;100.00;100775.94;5100727;28;20086;-73
2022/01/03 05:12:19;;;;;;;29.45;5.05;;;;;;;8.81;100.00;100761.00;5109892;28;20038;-73
2022/01/03 05:14:45;;;;;;;31.92;4.78;;;;;;;8.81;100.00;100769.31;5112964;28;20655;-73
2022/01/03 05:17:10;;;;;;;29.15;4.40;;;;;;;8.79;100.00;100764.03;5099521;28;20648;-74
2022/01/03 05:19:36;;;;;;;34.58;4.70;;;;;;;8.82;100.00;100779.28;5090821;28;20515;-74
2022/01/03 05:22:02;;;;;;;31.10;4.90;;;;;;;8.80;100.00;100782.31;5097633;28;20062;-74
2022/01/03 05:24:27;;;;;;;21.23;3.72;;;;;;;8.83;100.00;100789.25;5078657;28;20114;-74
2022/01/03 05:26:53;;;;;;;39.55;4.95;;;;;;;8.80;100.00;100776.78;5113957;28;20028;-74
2022/01/03 05:29:18;;;;;;;28.98;3.67;;;;;;;8.82;100.00;100768.19;5112272;27;20659;-73
2022/01/03 05:31:44;;;;;;;34.35;4.55;;;;;;;8.82;100.00;100754.34;5133537;27;20058;-73
2022/01/03 05:34:09;;;;;;;32.78;4.03;;;;;;;8.82;100.00;100757.13;5084338;27;20028;-74
2022/01/03 05:36:35;;;;;;;23.83;4.15;;;;;;;8.82;100.00;100743.28;5117229;27;20096;-73
2022/01/03 05:39:00;;;;;;;24.13;3.25;;;;;;;8.83;100.00;100754.09;5101147;27;20027;-73
2022/01/03 05:41:26;;;;;;;30.13;4.38;;;;;;;8.84;100.00;100754.91;5085591;27;20076;-73
2022/01/03 05:43:52;;;;;;;40.28;4.38;;;;;;;8.82;100.00;100760.72;5112501;28;20050;-73
2022/01/03 05:46:18;;;;;;;24.65;4.40;;;;;;;8.82;100.00;100760.72;5132201;27;20126;-74
2022/01/03 05:48:43;;;;;;;40.72;5.05;;;;;;;8.83;100.00;100758.78;5117957;28;20057;-74
2022/01/03 05:51:09;;;;;;;29.52;4.15;;;;;;;8.84;100.00;100766.00;5127681;27;20035;-73
2022/01/03 05:53:34;;;;;;;22.48;3.83;;;;;;;8.83;100.00;100754.09;5138159;27;20027;-73
2022/01/03 05:56:00;;;;;;;31.98;4.40;;;;;;;8.83;100.00;100756.00;5091125;28;20032;-73
2022/01/03 05:58:25;;;;;;;26.42;4.25;;;;;;;8.82;100.00;100740.50;5073577;27;20031;-74
2022/01/03 06:00:51;;;;;;;29.88;4.28;;;;;;;8.84;100.00;100743.84;5132996;27;20034;-74
2022/01/03 06:03:20;;;;;;;30.95;4.80;;;;;;;8.82;100.00;100734.97;5130046;27;20027;-74
2022/01/03 06:06:05;;;;;;;25.80;3.47;;;;;;;8.82;100.00;100721.94;5116275;27;20051;-74
2022/01/03 06:08:31;;;;;;;33.97;4.55;;;;;;;8.84;100.00;100727.22;5091379;27;20128;-73
2022/01/03 06:10:57;;;;;;;31.33;4.10;;;;;;;8.84;100.00;100728.03;5130996;27;20039;-73
2022/01/03 06:13:22;;;;;;;27.13;4.75;;;;;;;8.83;100.00;100715.31;5118765;27;20020;-73
2022/01/03 06:15:48;;;;;;;31.92;3.55;;;;;;;8.81;100.00;100712.00;5096980;28;20036;-73
2022/01/03 06:18:14;;;;;;;28.35;3.95;;;;;;;8.83;100.00;100717.22;5106472;27;20042;-73
2022/01/03 06:20:43;;;;;;;31.73;3.58;;;;;;;8.84;100.00;100705.88;5081858;28;20114;-73
2022/01/03 06:23:10;;;;;;;28.90;4.00;;;;;;;8.80;100.00;100703.94;5099997;27;20027;-73
2022/01/03 06:25:36;;;;;;;28.90;3.72;;;;;;;8.81;100.00;100712.00;5089207;27;20039;-73
2022/01/03 06:28:06;;;;;;;30.80;3.95;;;;;;;8.81;100.00;100700.09;5081521;27;20027;-73
2022/01/03 06:30:32;;;;;;;31.25;4.47;;;;;;;8.81;100.00;100706.44;5093705;28;20040;-73
2022/01/03 06:32:58;;;;;;;36.80;4.78;;;;;;;8.81;100.00;100695.38;5075735;28;20039;-73
2022/01/03 06:35:23;;;;;;;34.08;3.95;;;;;;;8.82;100.00;100691.47;5063827;28;20508;-73
2022/01/03 06:37:49;;;;;;;28.45;3.78;;;;;;;8.85;100.00;100682.63;5066221;28;20043;-73
2022/01/03 06:40:14;;;;;;;30.30;4.15;;;;;;;8.85;100.00;100695.63;5059566;28;20093;-73
2022/01/03 06:42:40;;;;;;;24.35;4.10;;;;;;;8.84;100.00;100680.13;5058921;28;20130;-73
2022/01/03 06:45:05;;;;;;;28.05;4.30;;;;;;;8.82;100.00;100682.34;5075938;28;20032;-73
2022/01/03 06:47:31;;;;;;;44.08;5.15;;;;;;;8.83;100.00;100693.16;5063118;28;20063;-73
2022/01/03 06:49:56;;;;;;;43.15;4.43;;;;;;;8.81;100.00;100700.91;5099546;28;20031;-73
2022/01/03 06:52:22;;;;;;;31.83;4.10;;;;;;;8.84;100.00;100699.53;5080901;28;20088;-73
2022/01/03 06:54:47;;;;;;;25.33;4.15;;;;;;;8.82;100.00;100697.03;5060778;28;20233;-73
2022/01/03 06:57:13;;;;;;;31.52;4.38;;;;;;;8.83;100.00;100706.16;5072121;28;20039;-73
2022/01/03 06:59:38;;;;;;;35.75;4.40;;;;;;;8.84;100.00;100696.75;5082720;28;20040;-73
2022/01/03 07:02:04;;;;;;;30.60;4.07;;;;;;;8.84;100.00;100688.44;5081603;28;20031;-73
2022/01/03 07:04:30;;;;;;;37.83;4.50;;;;;;;8.82;100.00;100685.94;5081384;28;20028;-73
2022/01/03 07:06:55;;;;;;;27.50;4.18;;;;;;;8.83;100.00;100693.16;5081109;28;20043;-73
2022/01/03 07:09:21;;;;;;;38.15;4.72;;;;;;;8.82;100.00;100685.13;5060572;28;20031;-73
2022/01/03 07:11:46;;;;;;;32.15;4.07;;;;;;;8.83;100.00;100687.63;5066510;28;20153;-73
2022/01/03 07:19:37;;;;;;;38.17;4.28;;;;;;;8.85;100.00;100677.06;5101118;28;20039;-75
2022/01/03 07:22:05;;;;;;;40.08;4.35;;;;;;;8.88;100.00;100664.63;5078343;28;20039;-72
2022/01/03 07:24:36;;;;;;;31.08;5.03;;;;;;;8.87;100.00;100655.47;5078188;28;20118;-71
2022/01/03 07:27:03;;;;;;;29.13;4.50;;;;;;;8.89;100.00;100647.72;5080776;28;20442;-71
2022/01/03 07:29:28;;;;;;;35.30;4.50;;;;;;;8.90;100.00;100654.09;5073620;27;20035;-71
2022/01/03 07:31:54;;;;;;;39.42;5.40;;;;;;;8.92;100.00;100652.72;5096655;28;20036;-71
2022/01/03 07:34:20;;;;;;;34.90;5.05;;;;;;;8.93;100.00;100645.22;5079747;28;20028;-71
2022/01/03 07:36:45;;;;;;;32.72;4.50;;;;;;;8.94;100.00;100644.09;5065267;28;20078;-71
2022/01/03 07:39:12;;;;;;;43.10;4.95;;;;;;;8.94;100.00;100644.94;5064070;28;20051;-70
2022/01/03 07:41:37;;;;;;;38.40;5.35;;;;;;;8.93;100.00;100648.00;5065096;28;20028;-71
2022/01/03 07:44:03;;;;;;;38.75;4.35;;;;;;;8.95;100.00;100645.78;5074055;28;20039;-71
2022/01/03 07:46:28;;;;;;;30.05;3.67;;;;;;;8.96;100.00;100625.28;5094920;28;20393;-71
2022/01/03 07:48:54;;;;;;;45.10;4.32;;;;;;;8.97;100.00;100623.31;5076326;28;20028;-71
2022/01/03 07:51:19;;;;;;;41.47;5.03;;;;;;;8.97;100.00;100640.78;5070391;28;20035;-71
2022/01/03 07:53:45;;;;;;;41.63;4.55;;;;;;;8.98;100.00;100628.59;5063895;28;20136;-71
2022/01/03 07:56:10;;;;;;;30.42;4.13;;;;;;;8.97;100.00;100629.72;5061060;28;20035;-71
2022/01/03 07:58:39;;;;;;;33.05;4.70;;;;;;;8.98;100.00;100625.81;5097513;27;20039;-71
2022/01/03 08:01:08;;;;;;;29.08;4.20;;;;;;;8.99;100.00;100618.34;5121015;27;20095;-71
2022/01/03 08:03:34;;;;;;;32.20;4.03;;;;;;;8.98;100.00;100623.06;5055937;28;20032;-71
2022/01/03 08:05:59;;;;;;;33.55;4.03;;;;;;;9.00;100.00;100625.53;5055516;28;20036;-71
2022/01/03 08:08:25;;;;;;;30.70;4.22;;;;;;;9.01;100.00;100624.44;5076592;28;20053;-71
2022/01/03 08:10:50;;;;;;;33.28;4.40;;;;;;;9.03;100.00;100631.34;5051327;28;20061;-71
2022/01/03 08:13:16;;;;;;;25.15;3.45;;;;;;;9.02;100.00;100626.91;5094813;28;20050;-71
2022/01/03 08:15:42;;;;;;;37.88;4.75;;;;;;;9.05;100.00;100625.53;5096988;28;20036;-71
2022/01/03 08:18:07;;;;;;;41.90;4.63;;;;;;;9.06;100.00;100624.44;5076713;28;20396;-71
2022/01/03 08:20:33;;;;;;;38.08;4.50;;;;;;;9.07;100.00;100615.00;5074689;28;20084;-71
2022/01/03 08:22:59;;;;;;;38.90;4.20;;;;;;;9.09;100.00;100613.59;5082258;28;20032;-71
2022/01/03 08:25:24;;;;;;;34.65;4.35;;;;;;;9.10;100.00;100606.94;5067857;28;20473;-71
2022/01/03 08:27:50;;;;;;;32.40;4.68;;;;;;;9.14;100.00;100610.00;5077815;28;20093;-71
2022/01/03 08:30:15;;;;;;;32.15;4.07;;;;;;;9.13;100.00;100603.59;5104527;27;20525;-71
2022/01/03 08:32:41;;;;;;;29.83;4.18;;;;;;;9.14;100.00;100608.06;5088780;28;20036;-71
2022/01/03 08:35:07;;;;;;;41.60;4.43;;;;;;;9.17;100.00;100621.34;5075302;27;20055;-71
2022/01/03 08:37:33;;;;;;;34.30;3.63;;;;;;;9.18;100.00;100617.44;5098336;28;20076;-71
2022/01/03 08:40:03;;;;;;;35.13;4.30;;;;;;;9.18;100.00;100628.53;5116269;27;20030;-71
2022/01/03 08:42:28;;;;;;;35.55;4.40;;;;;;;9.21;100.00;100621.59;5117955;28;20075;-71
2022/01/03 08:44:54;;;;;;;35.35;4.38;;;;;;;9.23;100.00;100629.63;5092883;28;20484;-71
2022/01/03 08:47:20;;;;;;;32.70;4.45;;;;;;;9.25;100.00;100630.16;5071249;28;20023;-71
2022/01/03 08:49:45;;;;;;;40.33;4.38;;;;;;;9.27;100.00;100630.72;5105594;27;20024;-71
2022/01/03 08:52:11;;;;;;;35.80;4.70;;;;;;;9.29;100.00;100628.50;5095572;28;20039;-71
2022/01/03 08:54:37;;;;;;;33.47;4.97;;;;;;;9.29;100.00;100618.25;5103036;27;20387;-71
2022/01/03 08:57:02;;;;;;;33.05;4.20;;;;;;;9.32;100.00;100611.31;5122856;27;20076;-71
2022/01/03 08:59:28;;;;;;;39.72;4.28;;;;;;;9.35;100.00;100607.97;5117411;27;20111;-71
2022/01/03 09:01:53;;;;;;;32.78;4.30;;;;;;;9.37;100.00;100614.06;5083667;27;20114;-71
2022/01/03 09:04:19;;;;;;;32.90;3.85;;;;;;;9.38;100.00;100602.69;5099849;28;20035;-71
2022/01/03 09:06:44;;;;;;;30.75;4.35;;;;;;;9.42;100.00;100613.19;5108945;28;20032;-71
2022/01/03 09:09:10;;;;;;;45.33;5.20;;;;;;;9.45;100.00;100607.94;5103019;27;20038;-71
2022/01/03 09:11:36;;;;;;;42.33;4.95;;;;;;;9.47;100.00;100619.56;5123551;27;20032;-71
2022/01/03 09:14:02;;;;;;;39.10;4.53;;;;;;;9.52;100.00;100621.47;5081717;28;20042;-71
2022/01/03 09:16:27;;;;;;;33.88;4.22;;;;;;;9.53;100.00;100612.88;5100391;27;20431;-71
2022/01/03 09:18:53;;;;;;;33.67;4.18;;;;;;;9.56;100.00;100615.09;5111215;27;20038;-71
2022/01/03 09:21:19;;;;;;;33.88;4.18;;;;;;;9.57;100.00;100602.88;5118688;27;20038;-71
2022/01/03 09:23:49;;;;;;;36.75;5.07;;;;;;;9.62;100.00;100613.94;5117925;27;20042;-73
2022/01/03 09:28:59;;;;;;;42.53;5.00;;;;;;;9.67;100.00;100606.69;5101186;27;20386;-71
2022/01/03 09:31:30;;;;;;;33.55;4.18;;;;;;;9.72;100.00;100593.66;5102263;27;20055;-71
2022/01/03 09:33:57;;;;;;;40.90;4.75;;;;;;;9.75;100.00;100592.22;5079087;28;20415;-71
2022/01/03 09:36:23;;;;;;;35.75;4.95;;;;;;;9.78;100.00;100589.72;5100897;27;20039;-71
2022/01/03 09:38:48;;;;;;;33.53;3.83;;;;;;;9.80;100.00;100586.66;5085263;28;20038;-71
2022/01/03 09:41:14;;;;;;;32.33;3.95;;;;;;;9.84;100.00;100579.44;5075902;27;20063;-71
2022/01/03 09:43:51;;;;;;;39.55;4.43;;;;;;;9.89;100.00;100595.19;5103582;27;20422;-71
2022/01/03 09:46:26;;;;;;;38.00;4.47;;;;;;;9.91;100.00;100581.88;5117094;27;20505;-71
2022/01/03 09:48:52;;;;;;;30.92;4.35;;;;;;;9.93;100.00;100586.03;5099908;27;20080;-71
2022/01/03 09:51:23;;;;;;;31.73;3.67;;;;;;;9.97;100.00;100589.88;5111407;27;20027;-71
2022/01/03 09:53:50;;;;;;;36.65;4.38;;;;;;;10.00;100.00;100594.88;5094703;27;20070;-71
2022/01/03 09:56:16;;;;;;;31.88;3.50;;;;;;;10.01;100.00;100596.50;5095530;28;20417;-71
2022/01/03 09:58:41;;;;;;;30.42;4.20;;;;;;;10.03;100.00;100594.28;5100188;28;20032;-70
2022/01/03 10:01:07;;;;;;;41.33;5.60;;;;;;;10.07;100.00;100598.13;5102205;27;20080;-71
2022/01/03 10:03:34;;;;;;;31.25;4.60;;;;;;;10.10;100.00;100593.94;5119589;27;20027;-71
2022/01/03 10:06:00;;;;;;;47.90;5.53;;;;;;;10.13;100.00;100589.75;5087830;28;20028;-71
2022/01/03 10:08:25;;;;;;;34.17;4.35;;;;;;;10.15;100.00;100591.13;5077600;27;20525;-71
2022/01/03 10:10:52;;;;;;;33.53;4.68;;;;;;;10.19;100.00;100583.88;5100480;27;20506;-71
2022/01/03 10:13:17;;;;;;;34.78;4.10;;;;;;;10.21;100.00;100583.59;5093630;28;20430;-71
2022/01/03 10:15:43;;;;;;;32.78;4.00;;;;;;;10.21;100.00;100578.03;5079391;27;20035;-71
2022/01/03 10:18:18;;;;;;;41.83;5.05;;;;;;;10.23;100.00;100576.63;5103585;27;20058;-71
2022/01/03 10:20:44;;;;;;;28.75;4.15;;;;;;;10.26;100.00;100575.22;5097818;28;20046;-71
2022/01/03 10:23:11;;;;;;;37.65;4.55;;;;;;;10.28;100.00;100575.81;5079572;27;20062;-71
2022/01/03 10:25:36;;;;;;;36.97;5.22;;;;;;;10.30;100.00;100565.22;5077213;27;20446;-71
2022/01/03 10:28:05;;;;;;;38.03;4.40;;;;;;;10.31;100.00;100554.94;5083997;27;20062;-71
2022/01/03 10:30:39;;;;;;;37.65;4.63;;;;;;;10.34;100.00;100555.22;5097065;28;20040;-71
2022/01/03 10:33:09;;;;;;;39.80;4.75;;;;;;;10.36;100.00;100552.13;5099054;28;20031;-71
2022/01/03 10:35:41;;;;;;;34.75;4.47;;;;;;;10.37;100.00;100549.06;5072643;28;20161;-71
2022/01/03 10:38:08;;;;;;;30.38;4.25;;;;;;;10.41;100.00;100541.81;5064362;28;20039;-71
2022/01/03 10:40:34;;;;;;;33.30;4.28;;;;;;;10.45;100.00;100530.97;5093144;27;20034;-71
2022/01/03 10:43:16;;;;;;;37.70;4.75;;;;;;;10.48;100.00;100522.88;5100869;27;20032;-71
2022/01/03 10:45:41;;;;;;;39.63;4.95;;;;;;;10.49;100.00;100524.50;5104692;28;20031;-71
2022/01/03 10:48:29;;;;;;;36.70;4.57;;;;;;;10.55;100.00;100513.34;5101002;28;20457;-71
2022/01/03 10:50:55;;;;;;;46.53;8.98;;;;;;;10.55;100.00;100511.41;5067697;28;20039;-72
2022/01/03 10:53:51;;;;;;;35.40;6.78;;;;;;;10.56;100.00;100506.66;5082335;28;20510;-71
2022/01/03 10:56:33;;;;;;;32.10;6.30;;;;;;;10.56;100.00;100507.53;5090272;27;20028;-71
2022/01/03 10:59:02;;;;;;;31.40;5.80;;;;;;;10.57;100.00;100508.34;5095924;28;20579;-71
2022/01/03 11:01:29;;;;;;;29.38;4.68;;;;;;;10.59;100.00;100511.66;5083933;28;20028;-72
2022/01/03 11:03:57;;;;;;;33.17;4.45;;;;;;;10.57;100.00;100497.22;5078999;27;20027;-73
2022/01/03 11:06:48;;;;;;;35.17;5.10;;;;;;;10.59;100.00;100486.66;5089727;27;20034;-71
2022/01/03 11:11:58;;;;;;;36.13;5.55;;;;;;;10.59;100.00;100483.88;5101708;27;20031;-71
2022/01/03 11:14:30;;;;;;;25.35;5.25;;;;;;;10.59;100.00;100475.56;5088506;27;20038;-71
2022/01/03 11:16:56;;;;;;;31.27;4.93;;;;;;;10.58;100.00;100466.38;5120425;27;20105;-71
2022/01/03 11:19:37;;;;;;;31.15;4.80;;;;;;;10.61;100.00;100462.19;5114406;28;20043;-71
2022/01/03 11:22:03;;;;;;;31.98;5.00;;;;;;;10.63;100.00;100465.50;5074009;28;20556;-71
2022/01/03 11:24:28;;;;;;;30.00;4.60;;;;;;;10.63;100.00;100462.72;5095207;28;20036;-71
2022/01/03 11:26:54;;;;;;;30.55;4.80;;;;;;;10.64;100.00;100458.81;5098125;28;20051;-71
2022/01/03 11:29:19;;;;;;;31.42;5.07;;;;;;;10.64;100.00;100453.25;5085489;27;20031;-71